CYLW

Kelowna International Airport

Kelowna, British Columbia, Canada
METAR CYLW 220514Z AUTO 35014KT 9SM BKN130 BKN150 BKN210 19/14 A2997 RMK SLP146 DENSITY ALT 2100FT
Observed Flight Rules
Jun-22 @ 05:14 UTC (36 minutes ago) Visual Flight Rules
Wind Visibility Clouds
350° at 14 knots 9 miles
  • Broken at 13,000' AGL
  • Broken at 15,000' AGL
  • Broken at 21,000' AGL
Temperatures Readings
Current 19°C / 66°F
Dewpoint 14°C / 57°F
Humidity 73%
Altimeter 29.97" Hg
Pressure 1014.6 hPa
Elevation 430
METAR CYLW 220514Z AUTO 35014KT 9SM BKN130 BKN150 BKN210 19/14 A2997 RMK SLP146 DENSITY ALT 2100FT
Observed Flight Rules
Jun-22 @ 05:14 UTC
(36 minutes ago)
VFR
Wind Visibility
350° at 14 knots 9 miles
Clouds
  • Broken at 13,000' AGL
  • Broken at 15,000' AGL
  • Broken at 21,000' AGL
Temperature Dewpoint
19°C / 66°F 14°C / 57°F
Humidity Altimeter Pressure
73% 29.97" Hg 1014.6 hPa